createdAt,value
2023-05-17T00:00:26.612Z,73.09
2023-05-17T00:03:20.134Z,73.20
2023-05-17T00:05:53.885Z,73.13
2023-05-17T00:08:36.208Z,72.98
2023-05-17T00:11:34.520Z,73.09
2023-05-17T00:14:05.071Z,73.15
2023-05-17T00:16:42.537Z,73.10
2023-05-17T00:19:13.225Z,72.95
2023-05-17T00:21:44.031Z,72.86
2023-05-17T00:24:14.671Z,73.06
2023-05-17T00:26:45.029Z,73.12
2023-05-17T00:29:20.587Z,72.90
2023-05-17T00:31:55.073Z,73.18
2023-05-17T00:34:26.777Z,73.21
2023-05-17T00:36:59.864Z,73.19
2023-05-17T00:39:30.255Z,73.21
2023-05-17T00:42:02.765Z,73.29
2023-05-17T00:44:35.330Z,73.36
2023-05-17T00:47:16.512Z,73.51
2023-05-17T00:49:49.260Z,73.46
2023-05-17T00:52:19.986Z,73.52
2023-05-17T00:54:54.941Z,73.53
2023-05-17T00:57:29.607Z,73.46
2023-05-17T01:00:05.320Z,73.49
2023-05-17T01:02:38.017Z,73.40
2023-05-17T01:05:20.043Z,73.42
2023-05-17T01:07:50.536Z,73.54
2023-05-17T01:10:23.649Z,73.45
2023-05-17T01:13:18.404Z,73.54
2023-05-17T01:16:03.161Z,73.60
2023-05-17T01:19:01.807Z,73.60
2023-05-17T01:21:48.143Z,73.76
2023-05-17T01:24:39.463Z,73.76
2023-05-17T01:27:15.625Z,73.74
2023-05-17T01:29:55.342Z,73.67
2023-05-17T01:32:28.826Z,73.72
2023-05-17T01:34:58.993Z,73.77
2023-05-17T01:37:33.615Z,73.80
2023-05-17T01:40:08.000Z,73.68
2023-05-17T01:43:00.912Z,73.64
2023-05-17T01:46:21.622Z,73.82
2023-05-17T01:49:31.185Z,73.84
2023-05-17T01:52:19.590Z,73.70
2023-05-17T01:55:34.061Z,73.80
2023-05-17T01:58:16.568Z,74.05
2023-05-17T02:00:53.838Z,73.84
2023-05-17T02:03:29.994Z,73.84
2023-05-17T02:06:02.929Z,73.95
2023-05-17T02:08:45.256Z,73.69
2023-05-17T02:11:16.381Z,73.64
2023-05-17T02:13:47.951Z,73.57
2023-05-17T02:16:18.496Z,73.61
2023-05-17T02:18:48.377Z,73.75
2023-05-17T02:21:19.014Z,73.71
2023-05-17T02:23:49.514Z,73.74
2023-05-17T02:26:22.913Z,73.82
2023-05-17T02:29:03.917Z,73.77
2023-05-17T02:31:43.389Z,73.94
2023-05-17T02:34:19.486Z,73.72
2023-05-17T02:36:55.781Z,73.90
2023-05-17T02:39:25.837Z,74.01
2023-05-17T02:41:58.118Z,74.00
2023-05-17T02:44:31.354Z,74.04
2023-05-17T02:49:51.429Z,74.02
2023-05-17T02:52:22.254Z,74.07
2023-05-17T02:54:56.830Z,74.03
2023-05-17T02:57:30.004Z,74.02
2023-05-17T03:00:02.599Z,74.08
2023-05-17T03:02:47.540Z,74.08
2023-05-17T03:05:18.301Z,74.25
2023-05-17T03:07:59.732Z,74.35
2023-05-17T03:10:38.345Z,74.45
2023-05-17T03:13:15.371Z,74.41
2023-05-17T03:15:46.316Z,74.31
2023-05-17T03:18:17.522Z,74.53
2023-05-17T03:20:54.222Z,74.39
2023-05-17T03:23:24.669Z,74.48
2023-05-17T03:26:02.689Z,74.49
2023-05-17T03:28:45.605Z,74.49
2023-05-17T03:31:22.568Z,74.51
2023-05-17T03:33:53.327Z,74.22
2023-05-17T03:36:24.236Z,74.42
2023-05-17T03:38:54.382Z,74.43
2023-05-17T03:41:25.494Z,74.51
2023-05-17T03:43:56.928Z,74.56
2023-05-17T03:46:27.871Z,74.57
2023-05-17T03:48:58.898Z,74.48
2023-05-17T03:51:29.331Z,74.37
2023-05-17T03:54:02.465Z,74.31
2023-05-17T03:56:37.145Z,74.32
2023-05-17T03:59:10.623Z,74.44
2023-05-17T04:01:50.143Z,74.41
2023-05-17T04:04:24.943Z,74.49
2023-05-17T04:06:58.236Z,74.37
2023-05-17T04:09:35.590Z,74.51
2023-05-17T04:12:09.482Z,74.38
2023-05-17T04:14:43.484Z,74.27
2023-05-17T04:17:16.862Z,74.38
2023-05-17T04:19:56.634Z,74.23
2023-05-17T04:22:29.395Z,74.30
2023-05-17T04:25:01.907Z,74.23
2023-05-17T04:27:32.623Z,74.19
2023-05-17T04:30:05.703Z,73.87
2023-05-17T04:32:39.261Z,73.68
2023-05-17T04:35:12.002Z,73.68
2023-05-17T04:37:56.723Z,73.33
2023-05-17T04:40:30.145Z,73.09
2023-05-17T04:43:07.969Z,72.88
2023-05-17T04:45:46.775Z,72.89
2023-05-17T04:48:21.055Z,72.65
2023-05-17T04:50:55.370Z,72.40
2023-05-17T04:53:31.587Z,72.19
2023-05-17T04:56:07.276Z,71.96
2023-05-17T04:58:41.483Z,72.04
2023-05-17T05:01:16.240Z,71.98
2023-05-17T05:03:52.246Z,71.43
2023-05-17T05:06:22.590Z,71.58
2023-05-17T05:08:53.004Z,71.46
2023-05-17T05:11:26.335Z,71.59
2023-05-17T05:13:57.659Z,71.09
2023-05-17T05:16:29.549Z,70.99
2023-05-17T05:19:03.741Z,70.58
2023-05-17T05:21:35.078Z,70.38
2023-05-17T05:24:09.877Z,70.15
2023-05-17T05:26:47.492Z,69.95
2023-05-17T05:29:23.578Z,69.95
2023-05-17T05:31:54.033Z,69.61
2023-05-17T05:34:31.836Z,69.50
2023-05-17T05:37:03.126Z,69.55
2023-05-17T05:39:33.038Z,69.18
2023-05-17T05:42:03.981Z,68.82
2023-05-17T05:44:34.674Z,68.67
2023-05-17T05:47:05.725Z,68.63
2023-05-17T05:49:36.250Z,68.31
2023-05-17T05:52:14.708Z,67.91
2023-05-17T05:54:48.625Z,67.39
2023-05-17T05:57:19.112Z,67.27
2023-05-17T05:59:49.467Z,67.22
2023-05-17T06:02:20.311Z,66.79
2023-05-17T06:04:59.919Z,66.67
2023-05-17T06:07:35.895Z,66.45
2023-05-17T06:10:07.590Z,66.19
2023-05-17T06:12:41.570Z,65.79
2023-05-17T06:15:11.530Z,65.34
2023-05-17T06:17:46.092Z,65.02
2023-05-17T06:20:22.651Z,64.75
2023-05-17T06:22:54.520Z,64.77
2023-05-17T06:25:26.076Z,64.56
2023-05-17T06:27:55.829Z,64.30
2023-05-17T06:30:28.161Z,64.65
2023-05-17T06:33:05.055Z,64.54
2023-05-17T06:35:47.957Z,64.15
2023-05-17T06:38:25.332Z,63.85
2023-05-17T06:41:05.451Z,63.67
2023-05-17T06:43:46.525Z,63.29
2023-05-17T06:46:19.346Z,62.76
2023-05-17T06:48:51.371Z,62.23
2023-05-17T06:51:22.485Z,62.04
2023-05-17T06:53:55.446Z,61.88
2023-05-17T06:56:42.659Z,61.76
2023-05-17T06:59:15.666Z,61.56
2023-05-17T07:01:49.833Z,60.82
2023-05-17T07:04:21.205Z,60.39
2023-05-17T07:06:52.033Z,60.33
2023-05-17T07:09:22.260Z,60.57
2023-05-17T07:11:57.295Z,60.60
2023-05-17T07:14:43.615Z,60.04
2023-05-17T07:17:16.077Z,59.40
2023-05-17T07:19:51.547Z,59.49
2023-05-17T07:22:33.675Z,59.54
2023-05-17T07:25:05.239Z,59.15
2023-05-17T07:27:37.573Z,59.09
2023-05-17T07:30:26.964Z,59.11
2023-05-17T07:33:08.186Z,58.92
2023-05-17T07:35:47.059Z,58.66
2023-05-17T07:38:26.318Z,58.85
2023-05-17T07:41:09.930Z,59.03
2023-05-17T07:43:44.047Z,58.64
2023-05-17T07:46:14.079Z,58.13
2023-05-17T07:48:58.330Z,58.15
2023-05-17T07:51:35.089Z,58.07
2023-05-17T07:54:09.543Z,57.84
2023-05-17T07:56:41.389Z,57.59
2023-05-17T07:59:12.518Z,57.55
2023-05-17T08:01:49.177Z,58.36
2023-05-17T08:04:22.054Z,58.19
2023-05-17T08:07:01.238Z,57.99
2023-05-17T08:09:38.259Z,57.88
2023-05-17T08:12:07.693Z,57.85
2023-05-17T08:14:37.704Z,57.78
2023-05-17T08:17:11.134Z,57.54
2023-05-17T08:19:42.098Z,56.97
2023-05-17T08:22:22.331Z,56.55
2023-05-17T08:24:56.347Z,56.07
2023-05-17T08:27:30.986Z,55.80
2023-05-17T08:30:12.097Z,55.39
2023-05-17T08:32:49.590Z,55.39
2023-05-17T08:35:33.180Z,55.41
2023-05-17T08:38:29.058Z,55.30
2023-05-17T08:41:00.482Z,54.95
2023-05-17T08:43:34.741Z,54.67
2023-05-17T08:46:09.741Z,54.58
2023-05-17T08:48:43.798Z,54.09
2023-05-17T08:51:19.440Z,54.14
2023-05-17T08:53:59.655Z,53.95
2023-05-17T08:56:33.705Z,53.33
2023-05-17T08:59:09.574Z,52.68
2023-05-17T09:01:44.463Z,51.81
2023-05-17T09:04:19.983Z,51.02
2023-05-17T09:07:04.446Z,50.97
2023-05-17T09:09:46.092Z,50.36
2023-05-17T09:12:21.227Z,49.55
2023-05-17T09:14:57.901Z,49.08
2023-05-17T09:17:34.020Z,49.02
2023-05-17T09:20:04.831Z,48.28
2023-05-17T09:22:38.017Z,47.12
2023-05-17T09:25:20.051Z,46.86
2023-05-17T09:27:56.091Z,46.15
2023-05-17T09:30:33.392Z,45.82
2023-05-17T09:33:15.089Z,46.44
2023-05-17T09:35:56.490Z,46.57
2023-05-17T09:38:33.858Z,46.46
2023-05-17T09:41:08.882Z,46.23
2023-05-17T09:43:43.033Z,45.56
2023-05-17T09:46:17.373Z,45.26
2023-05-17T09:48:57.992Z,45.66
2023-05-17T09:51:42.587Z,45.44
2023-05-17T09:54:19.748Z,45.57
2023-05-17T09:57:17.944Z,45.55
2023-05-17T10:00:11.299Z,45.71
2023-05-17T10:02:48.804Z,46.20
2023-05-17T10:05:21.786Z,46.08
2023-05-17T10:07:56.938Z,46.08
2023-05-17T10:10:27.896Z,45.69
2023-05-17T10:13:01.979Z,45.24
2023-05-17T10:15:36.760Z,44.88
2023-05-17T10:18:12.866Z,44.61
2023-05-17T10:21:11.724Z,44.77
2023-05-17T10:23:58.732Z,44.66
2023-05-17T10:26:54.872Z,44.24
2023-05-17T10:30:04.788Z,44.20
2023-05-17T10:32:54.516Z,44.28
2023-05-17T10:35:46.808Z,44.85
2023-05-17T10:39:00.320Z,45.20
2023-05-17T10:41:53.012Z,45.10
2023-05-17T10:45:12.119Z,45.22
2023-05-17T10:48:35.366Z,45.70
2023-05-17T10:51:50.879Z,45.25
2023-05-17T10:54:38.702Z,45.34
2023-05-17T10:57:23.196Z,45.25
2023-05-17T11:00:22.430Z,45.47
2023-05-17T11:03:21.311Z,45.72
2023-05-17T11:06:24.889Z,46.03
2023-05-17T11:09:18.636Z,46.40
2023-05-17T11:12:07.645Z,46.75
2023-05-17T11:14:48.998Z,46.77
2023-05-17T11:21:17.666Z,47.41
2023-05-17T11:23:58.466Z,47.85
2023-05-17T11:26:50.426Z,47.95
2023-05-17T11:29:39.576Z,48.08
2023-05-17T11:32:44.358Z,47.88
2023-05-17T11:35:15.104Z,48.31
2023-05-17T11:37:50.023Z,48.50
2023-05-17T11:40:32.962Z,48.36
2023-05-17T11:43:34.166Z,48.50
2023-05-17T11:46:07.749Z,48.58
2023-05-17T11:48:39.690Z,48.81
2023-05-17T11:51:21.353Z,48.70
2023-05-17T11:54:07.707Z,48.60
2023-05-17T11:56:45.573Z,48.70
2023-05-17T11:59:21.400Z,48.59
2023-05-17T12:01:56.652Z,48.92
2023-05-17T12:04:30.173Z,49.16
2023-05-17T12:07:02.132Z,49.00
2023-05-17T12:09:42.085Z,49.04
2023-05-17T12:12:11.732Z,49.02
2023-05-17T12:14:45.537Z,48.94
2023-05-17T12:17:39.471Z,49.14
2023-05-17T12:20:17.809Z,49.07
2023-05-17T12:23:07.549Z,49.36
2023-05-17T12:25:40.771Z,49.45
2023-05-17T12:28:22.886Z,49.55
2023-05-17T12:31:20.736Z,49.85
2023-05-17T12:33:59.657Z,50.18
2023-05-17T12:36:42.728Z,50.38
2023-05-17T12:39:25.069Z,49.89
2023-05-17T12:41:58.833Z,49.57
2023-05-17T12:44:33.439Z,49.73
2023-05-17T12:47:07.380Z,49.74
2023-05-17T12:50:20.399Z,49.98
2023-05-17T12:52:59.370Z,50.00
2023-05-17T12:55:47.369Z,49.56
2023-05-17T12:58:18.497Z,49.55
2023-05-17T13:01:07.905Z,49.98
2023-05-17T13:03:38.697Z,50.51
2023-05-17T13:06:13.807Z,50.82
2023-05-17T13:09:02.633Z,50.80
2023-05-17T13:11:47.196Z,50.53
2023-05-17T13:14:45.358Z,50.15
2023-05-17T13:17:27.321Z,50.52
2023-05-17T13:19:58.239Z,50.66
2023-05-17T13:22:28.077Z,50.39
2023-05-17T13:24:57.570Z,50.46
2023-05-17T13:27:33.683Z,50.67
2023-05-17T13:30:09.433Z,50.45
2023-05-17T13:32:47.524Z,50.14
2023-05-17T13:35:19.776Z,50.24
2023-05-17T13:37:49.898Z,50.16
2023-05-17T13:40:24.639Z,50.04
2023-05-17T13:42:59.401Z,50.14
2023-05-17T13:45:29.827Z,49.84
2023-05-17T13:48:04.874Z,49.89
2023-05-17T13:50:42.593Z,49.83
2023-05-17T13:53:25.680Z,49.88
2023-05-17T13:56:00.752Z,49.57
2023-05-17T13:58:30.279Z,49.69
2023-05-17T14:01:00.572Z,49.71
2023-05-17T14:03:30.154Z,49.65
2023-05-17T14:05:59.481Z,49.76
2023-05-17T14:08:32.260Z,49.95
2023-05-17T14:11:06.256Z,50.06
2023-05-17T14:13:45.775Z,49.95
2023-05-17T14:16:38.115Z,49.99
2023-05-17T14:19:14.812Z,50.07
2023-05-17T14:21:48.163Z,50.24
2023-05-17T14:24:24.852Z,50.30
2023-05-17T14:27:05.465Z,50.46
2023-05-17T14:29:45.505Z,50.67
2023-05-17T14:32:22.815Z,50.78
2023-05-17T14:34:59.921Z,50.85
2023-05-17T14:37:40.774Z,50.98
2023-05-17T14:40:18.994Z,51.10
2023-05-17T14:42:53.892Z,51.55
2023-05-17T14:45:24.111Z,51.21
2023-05-17T14:47:54.162Z,51.16
2023-05-17T14:50:23.897Z,51.21
2023-05-17T14:52:58.036Z,51.02
2023-05-17T14:55:36.985Z,50.85
2023-05-17T14:58:18.980Z,51.13
2023-05-17T15:01:06.768Z,51.32
2023-05-17T15:06:45.791Z,51.45
2023-05-17T15:09:18.758Z,51.21
2023-05-17T15:11:50.220Z,51.08
2023-05-17T15:14:25.809Z,51.01
2023-05-17T15:16:56.745Z,51.21
2023-05-17T15:19:29.775Z,51.36
2023-05-17T15:22:00.124Z,51.37
2023-05-17T15:24:30.329Z,51.42
2023-05-17T15:27:08.589Z,51.42
2023-05-17T15:29:51.289Z,51.37
2023-05-17T15:32:31.010Z,51.59
2023-05-17T15:35:12.073Z,51.81
2023-05-17T15:37:47.141Z,51.95
2023-05-17T15:40:21.924Z,52.03
2023-05-17T15:46:53.184Z,52.20
2023-05-17T15:49:26.166Z,52.27
2023-05-17T15:52:04.168Z,52.29
2023-05-17T15:54:34.102Z,52.40
2023-05-17T15:57:05.287Z,52.48
2023-05-17T15:59:41.709Z,52.29
2023-05-17T16:02:14.693Z,52.12
2023-05-17T16:04:51.635Z,51.75
2023-05-17T16:07:32.683Z,51.48
2023-05-17T16:10:03.509Z,51.19
2023-05-17T16:12:36.994Z,50.93
2023-05-17T16:15:17.663Z,50.65
2023-05-17T16:17:57.685Z,50.65
2023-05-17T16:20:42.823Z,50.52
2023-05-17T16:23:26.662Z,50.41
2023-05-17T16:26:07.846Z,50.42
2023-05-17T16:28:41.517Z,50.35
2023-05-17T16:31:20.129Z,50.33
2023-05-17T16:34:01.581Z,50.24
2023-05-17T16:36:42.439Z,50.44
2023-05-17T16:39:22.052Z,50.61
2023-05-17T16:42:00.127Z,50.59
2023-05-17T16:44:37.690Z,50.57
2023-05-17T16:47:18.709Z,50.63
2023-05-17T16:49:57.054Z,50.83
2023-05-17T16:52:34.820Z,50.94
2023-05-17T16:55:07.143Z,51.15
2023-05-17T16:57:49.793Z,51.07
2023-05-17T17:00:30.167Z,51.02
2023-05-17T17:03:14.371Z,51.11
2023-05-17T17:05:57.649Z,50.89
2023-05-17T17:08:45.655Z,50.96
2023-05-17T17:11:31.184Z,50.97
2023-05-17T17:14:03.706Z,51.19
2023-05-17T17:16:53.631Z,51.56
2023-05-17T17:19:30.973Z,51.36
2023-05-17T17:22:07.669Z,51.55
2023-05-17T17:25:13.983Z,51.72
2023-05-17T17:28:07.123Z,52.02
2023-05-17T17:31:05.472Z,52.34
2023-05-17T17:33:41.574Z,52.12
2023-05-17T17:36:13.642Z,52.12
2023-05-17T17:38:53.671Z,52.35
2023-05-17T17:41:47.206Z,52.18
2023-05-17T17:44:41.264Z,52.17
2023-05-17T17:47:28.308Z,52.63
2023-05-17T17:53:42.273Z,53.19
2023-05-17T17:56:41.608Z,53.16
2023-05-17T17:59:13.921Z,53.39
2023-05-17T18:01:49.034Z,53.65
2023-05-17T18:04:20.778Z,53.74
2023-05-17T18:07:02.765Z,53.81
2023-05-17T18:09:36.016Z,53.62
2023-05-17T18:12:09.175Z,53.92
2023-05-17T18:14:42.484Z,53.85
2023-05-17T18:17:36.835Z,53.69
2023-05-17T18:20:12.436Z,53.50
2023-05-17T18:22:56.044Z,53.47
2023-05-17T18:25:26.233Z,53.56
2023-05-17T18:27:56.682Z,53.64
2023-05-17T18:30:27.099Z,53.62
2023-05-17T18:32:59.616Z,53.83
2023-05-17T18:36:16.721Z,54.03
2023-05-17T18:39:15.025Z,54.09
2023-05-17T18:42:12.736Z,54.17
2023-05-17T18:44:48.817Z,54.20
2023-05-17T18:47:25.611Z,54.25
2023-05-17T18:53:41.034Z,54.61
2023-05-17T18:56:22.553Z,54.64
2023-05-17T18:59:06.949Z,54.68
2023-05-17T19:01:52.402Z,54.66
2023-05-17T19:04:42.551Z,54.68
2023-05-17T19:07:35.242Z,54.59
2023-05-17T19:10:32.267Z,54.62
2023-05-17T19:13:29.364Z,54.38
2023-05-17T19:16:09.898Z,54.18
2023-05-17T19:19:04.692Z,54.29
2023-05-17T19:21:44.951Z,53.75
2023-05-17T19:24:15.500Z,53.49
2023-05-17T19:26:48.587Z,53.45
2023-05-17T19:29:22.832Z,53.44
2023-05-17T19:31:59.687Z,53.53
2023-05-17T19:34:36.814Z,53.45
2023-05-17T19:37:33.498Z,53.36
2023-05-17T19:40:13.035Z,53.22
2023-05-17T19:42:47.143Z,53.30
2023-05-17T19:45:34.644Z,53.35
2023-05-17T19:48:25.566Z,53.32
2023-05-17T19:51:12.551Z,53.56
2023-05-17T19:53:53.430Z,53.80
2023-05-17T19:56:31.882Z,53.84
2023-05-17T19:59:11.526Z,53.90
2023-05-17T20:01:44.688Z,53.94
2023-05-17T20:04:36.918Z,54.07
2023-05-17T20:07:25.368Z,54.22
2023-05-17T20:10:13.151Z,54.08
2023-05-17T20:12:58.307Z,54.27
2023-05-17T20:15:29.166Z,54.41
2023-05-17T20:18:28.003Z,54.60
2023-05-17T20:24:48.030Z,54.71
2023-05-17T20:34:34.013Z,55.27
2023-05-17T20:37:07.454Z,55.35
2023-05-17T20:39:46.933Z,55.28
2023-05-17T20:42:20.827Z,55.20
2023-05-17T20:45:13.846Z,55.33
2023-05-17T21:01:01.907Z,55.71
2023-05-17T21:03:37.474Z,55.74
2023-05-17T21:10:11.634Z,55.92
2023-05-17T21:21:21.897Z,56.50
2023-05-17T21:24:28.067Z,56.66
2023-05-17T21:27:21.550Z,56.70
2023-05-17T21:30:00.910Z,56.60
2023-05-17T21:32:40.983Z,56.71
2023-05-17T21:35:35.405Z,56.87
2023-05-17T21:38:10.775Z,56.96
2023-05-17T21:41:05.609Z,57.19
2023-05-17T21:57:25.645Z,57.49
2023-05-17T22:00:38.137Z,57.28
2023-05-17T22:04:05.362Z,57.48
2023-05-17T22:07:17.576Z,57.51
2023-05-17T22:12:55.042Z,57.66
2023-05-17T22:15:40.616Z,57.93
2023-05-17T22:18:24.017Z,57.80
2023-05-17T22:21:03.036Z,57.84
2023-05-17T22:27:12.511Z,57.53
2023-05-17T22:30:01.842Z,57.37
2023-05-17T22:32:45.111Z,57.43
2023-05-17T22:35:21.807Z,57.27
2023-05-17T22:37:54.695Z,57.20
2023-05-17T22:40:27.504Z,56.94
2023-05-17T22:43:35.885Z,56.99
2023-05-17T22:46:27.940Z,57.04
2023-05-17T22:49:28.615Z,57.10
2023-05-17T22:52:08.294Z,57.08
2023-05-17T22:54:51.219Z,57.26
2023-05-17T22:57:31.186Z,57.28
2023-05-17T23:00:06.156Z,57.66
2023-05-17T23:02:44.978Z,57.61
2023-05-17T23:05:28.799Z,57.82
2023-05-17T23:08:16.516Z,57.65
2023-05-17T23:10:54.293Z,57.87
2023-05-17T23:13:31.503Z,57.80
2023-05-17T23:16:26.248Z,57.88
2023-05-17T23:18:58.604Z,58.00
2023-05-17T23:21:38.101Z,58.02
2023-05-17T23:24:12.780Z,58.04
2023-05-17T23:27:00.594Z,58.08
2023-05-17T23:29:36.454Z,58.14
2023-05-17T23:32:17.342Z,58.17
2023-05-17T23:34:50.835Z,58.23
2023-05-17T23:37:27.069Z,58.19
2023-05-17T23:40:00.673Z,57.96
2023-05-17T23:42:38.273Z,57.86
2023-05-17T23:45:10.226Z,57.92
2023-05-17T23:47:41.415Z,58.08
2023-05-17T23:50:12.406Z,58.05
2023-05-17T23:52:45.434Z,58.02
2023-05-17T23:55:28.042Z,57.84
2023-05-17T23:58:21.573Z,57.87
